Terminal Aerodrome Forecast
Issued by NWS

Home | Current Version | Previous Version | Text Only | Print | Product List | Glossary On
Versions: 1 2 3 4 5 6 7 8 9 10 11 12 13 14 15 16 17 18 19
839
FTUS43 KDVN 280547
TAFCID
TAF
KCID 280547Z 2806/0106 08012KT P6SM VCSH OVC050
     FM281100 15011G18KT 4SM -SHRA VCTS OVC015CB
     FM281400 18010KT 3SM BR OVC008
     FM282000 22012KT 4SM -SHRA VCTS OVC012CB
     FM010000 30007KT P6SM OVC015=

USA.gov is the U.S. government's official web portal to all federal, state and local government web resources and services.